sensor_id;sensor_type;location;lat;lon;timestamp;P1;durP1;ratioP1;P2;durP2;ratioP2
19167;SDS011;9716;53.114;18.040;2024-01-10T00:01:19;34.97;;;13.83;;
19167;SDS011;9716;53.114;18.040;2024-01-10T00:03:53;42.37;;;15.60;;
19167;SDS011;9716;53.114;18.040;2024-01-10T00:06:23;37.93;;;14.77;;
19167;SDS011;9716;53.114;18.040;2024-01-10T00:08:53;28.10;;;13.27;;
19167;SDS011;9716;53.114;18.040;2024-01-10T00:11:21;37.00;;;14.13;;
19167;SDS011;9716;53.114;18.040;2024-01-10T00:13:50;34.50;;;13.50;;
19167;SDS011;9716;53.114;18.040;2024-01-10T00:16:18;39.07;;;16.63;;
19167;SDS011;9716;53.114;18.040;2024-01-10T00:18:47;37.60;;;13.93;;
19167;SDS011;9716;53.114;18.040;2024-01-10T00:21:15;40.03;;;14.03;;
19167;SDS011;9716;53.114;18.040;2024-01-10T00:23:45;36.63;;;13.20;;
19167;SDS011;9716;53.114;18.040;2024-01-10T00:26:14;26.20;;;12.50;;
19167;SDS011;9716;53.114;18.040;2024-01-10T00:28:43;26.30;;;10.70;;
19167;SDS011;9716;53.114;18.040;2024-01-10T00:31:13;34.47;;;15.50;;
19167;SDS011;9716;53.114;18.040;2024-01-10T00:33:41;31.33;;;12.50;;
19167;SDS011;9716;53.114;18.040;2024-01-10T00:36:10;31.43;;;12.33;;
19167;SDS011;9716;53.114;18.040;2024-01-10T00:38:39;37.63;;;12.27;;
19167;SDS011;9716;53.114;18.040;2024-01-10T00:41:09;29.53;;;10.10;;
19167;SDS011;9716;53.114;18.040;2024-01-10T00:43:39;33.40;;;12.20;;
19167;SDS011;9716;53.114;18.040;2024-01-10T00:46:07;25.33;;;10.23;;
19167;SDS011;9716;53.114;18.040;2024-01-10T00:48:36;27.17;;;11.00;;
19167;SDS011;9716;53.114;18.040;2024-01-10T00:51:04;28.60;;;11.13;;
19167;SDS011;9716;53.114;18.040;2024-01-10T00:53:35;21.87;;;10.23;;
19167;SDS011;9716;53.114;18.040;2024-01-10T00:56:06;25.03;;;10.17;;
19167;SDS011;9716;53.114;18.040;2024-01-10T00:58:36;26.60;;;10.53;;
19167;SDS011;9716;53.114;18.040;2024-01-10T01:01:04;24.83;;;9.83;;
19167;SDS011;9716;53.114;18.040;2024-01-10T01:03:33;26.93;;;9.60;;
19167;SDS011;9716;53.114;18.040;2024-01-10T01:06:02;26.17;;;9.80;;
19167;SDS011;9716;53.114;18.040;2024-01-10T01:08:31;25.60;;;9.83;;
19167;SDS011;9716;53.114;18.040;2024-01-10T01:11:00;22.33;;;9.93;;
19167;SDS011;9716;53.114;18.040;2024-01-10T01:13:28;30.37;;;11.20;;
19167;SDS011;9716;53.114;18.040;2024-01-10T01:15:58;29.93;;;10.77;;
19167;SDS011;9716;53.114;18.040;2024-01-10T01:18:26;23.40;;;8.93;;
19167;SDS011;9716;53.114;18.040;2024-01-10T01:20:55;24.57;;;11.07;;
19167;SDS011;9716;53.114;18.040;2024-01-10T01:23:23;24.13;;;9.53;;
19167;SDS011;9716;53.114;18.040;2024-01-10T01:26:07;25.30;;;10.17;;
19167;SDS011;9716;53.114;18.040;2024-01-10T01:28:36;23.27;;;8.97;;
19167;SDS011;9716;53.114;18.040;2024-01-10T01:31:06;27.30;;;10.83;;
19167;SDS011;9716;53.114;18.040;2024-01-10T01:33:34;21.57;;;9.40;;
19167;SDS011;9716;53.114;18.040;2024-01-10T01:36:03;20.73;;;9.40;;
19167;SDS011;9716;53.114;18.040;2024-01-10T01:38:31;23.50;;;9.77;;
19167;SDS011;9716;53.114;18.040;2024-01-10T01:41:00;26.47;;;9.93;;
19167;SDS011;9716;53.114;18.040;2024-01-10T01:43:29;24.23;;;8.93;;
19167;SDS011;9716;53.114;18.040;2024-01-10T01:45:58;20.93;;;8.30;;
19167;SDS011;9716;53.114;18.040;2024-01-10T01:48:28;24.90;;;10.60;;
19167;SDS011;9716;53.114;18.040;2024-01-10T01:51:00;19.03;;;8.20;;
19167;SDS011;9716;53.114;18.040;2024-01-10T01:53:32;23.20;;;9.70;;
19167;SDS011;9716;53.114;18.040;2024-01-10T01:56:02;21.07;;;9.33;;
19167;SDS011;9716;53.114;18.040;2024-01-10T01:58:34;18.10;;;8.50;;
19167;SDS011;9716;53.114;18.040;2024-01-10T02:01:03;23.57;;;8.30;;
19167;SDS011;9716;53.114;18.040;2024-01-10T02:03:34;28.03;;;10.27;;
19167;SDS011;9716;53.114;18.040;2024-01-10T02:06:03;25.70;;;9.00;;
19167;SDS011;9716;53.114;18.040;2024-01-10T02:08:31;27.00;;;10.57;;
19167;SDS011;9716;53.114;18.040;2024-01-10T02:11:01;17.40;;;8.00;;
19167;SDS011;9716;53.114;18.040;2024-01-10T02:13:30;22.33;;;9.30;;
19167;SDS011;9716;53.114;18.040;2024-01-10T02:16:00;22.37;;;8.53;;
19167;SDS011;9716;53.114;18.040;2024-01-10T02:18:30;21.47;;;8.43;;
19167;SDS011;9716;53.114;18.040;2024-01-10T02:21:00;19.40;;;8.77;;
19167;SDS011;9716;53.114;18.040;2024-01-10T02:23:28;15.60;;;7.63;;
19167;SDS011;9716;53.114;18.040;2024-01-10T02:25:58;20.83;;;8.97;;
19167;SDS011;9716;53.114;18.040;2024-01-10T02:28:27;23.83;;;9.17;;
19167;SDS011;9716;53.114;18.040;2024-01-10T02:30:55;20.40;;;7.73;;
19167;SDS011;9716;53.114;18.040;2024-01-10T02:33:25;18.43;;;8.43;;
19167;SDS011;9716;53.114;18.040;2024-01-10T02:35:53;22.37;;;8.83;;
19167;SDS011;9716;53.114;18.040;2024-01-10T02:38:22;24.80;;;9.17;;
19167;SDS011;9716;53.114;18.040;2024-01-10T02:40:50;22.47;;;7.97;;
19167;SDS011;9716;53.114;18.040;2024-01-10T02:43:20;21.37;;;9.10;;
19167;SDS011;9716;53.114;18.040;2024-01-10T02:45:49;19.10;;;8.10;;
19167;SDS011;9716;53.114;18.040;2024-01-10T02:48:17;18.93;;;7.70;;
19167;SDS011;9716;53.114;18.040;2024-01-10T02:50:46;30.20;;;8.77;;
19167;SDS011;9716;53.114;18.040;2024-01-10T02:53:14;21.77;;;9.30;;
19167;SDS011;9716;53.114;18.040;2024-01-10T02:55:43;14.77;;;7.20;;
19167;SDS011;9716;53.114;18.040;2024-01-10T02:58:13;21.67;;;9.20;;
19167;SDS011;9716;53.114;18.040;2024-01-10T03:00:43;23.07;;;9.17;;
19167;SDS011;9716;53.114;18.040;2024-01-10T03:03:11;16.93;;;7.93;;
19167;SDS011;9716;53.114;18.040;2024-01-10T03:05:41;18.30;;;7.67;;
19167;SDS011;9716;53.114;18.040;2024-01-10T03:08:11;25.43;;;9.10;;
19167;SDS011;9716;53.114;18.040;2024-01-10T03:10:40;18.87;;;7.60;;
19167;SDS011;9716;53.114;18.040;2024-01-10T03:13:08;17.77;;;7.17;;
19167;SDS011;9716;53.114;18.040;2024-01-10T03:15:37;24.30;;;8.53;;
19167;SDS011;9716;53.114;18.040;2024-01-10T03:18:07;22.23;;;9.60;;
19167;SDS011;9716;53.114;18.040;2024-01-10T03:20:36;19.93;;;8.80;;
19167;SDS011;9716;53.114;18.040;2024-01-10T03:23:04;22.90;;;9.03;;
19167;SDS011;9716;53.114;18.040;2024-01-10T03:25:33;21.23;;;9.37;;
19167;SDS011;9716;53.114;18.040;2024-01-10T03:28:01;25.20;;;9.97;;
19167;SDS011;9716;53.114;18.040;2024-01-10T03:30:30;27.90;;;11.23;;
19167;SDS011;9716;53.114;18.040;2024-01-10T03:32:58;30.13;;;11.23;;
19167;SDS011;9716;53.114;18.040;2024-01-10T03:35:28;32.07;;;13.07;;
19167;SDS011;9716;53.114;18.040;2024-01-10T03:37:57;33.70;;;12.23;;
19167;SDS011;9716;53.114;18.040;2024-01-10T03:40:25;26.33;;;11.50;;
19167;SDS011;9716;53.114;18.040;2024-01-10T03:42:53;27.73;;;12.40;;
19167;SDS011;9716;53.114;18.040;2024-01-10T03:45:22;34.20;;;12.83;;
19167;SDS011;9716;53.114;18.040;2024-01-10T03:47:50;29.47;;;11.17;;
19167;SDS011;9716;53.114;18.040;2024-01-10T03:50:19;33.87;;;12.80;;
19167;SDS011;9716;53.114;18.040;2024-01-10T03:52:49;32.83;;;14.07;;
19167;SDS011;9716;53.114;18.040;2024-01-10T03:55:18;39.47;;;14.80;;
19167;SDS011;9716;53.114;18.040;2024-01-10T03:57:46;41.10;;;13.73;;
19167;SDS011;9716;53.114;18.040;2024-01-10T04:00:15;35.93;;;15.67;;
19167;SDS011;9716;53.114;18.040;2024-01-10T04:02:44;33.43;;;12.70;;
19167;SDS011;9716;53.114;18.040;2024-01-10T04:05:15;34.87;;;13.97;;
19167;SDS011;9716;53.114;18.040;2024-01-10T04:07:45;35.30;;;14.27;;
19167;SDS011;9716;53.114;18.040;2024-01-10T04:10:15;36.73;;;13.87;;
19167;SDS011;9716;53.114;18.040;2024-01-10T04:12:44;33.60;;;13.77;;
19167;SDS011;9716;53.114;18.040;2024-01-10T04:15:13;39.93;;;13.23;;
19167;SDS011;9716;53.114;18.040;2024-01-10T04:17:41;34.50;;;14.27;;
19167;SDS011;9716;53.114;18.040;2024-01-10T04:20:10;39.03;;;14.77;;
19167;SDS011;9716;53.114;18.040;2024-01-10T04:22:39;39.50;;;14.50;;
19167;SDS011;9716;53.114;18.040;2024-01-10T04:25:07;35.27;;;12.47;;
19167;SDS011;9716;53.114;18.040;2024-01-10T04:27:37;30.30;;;12.63;;
19167;SDS011;9716;53.114;18.040;2024-01-10T04:30:06;36.10;;;13.47;;
19167;SDS011;9716;53.114;18.040;2024-01-10T04:32:35;37.73;;;14.93;;
19167;SDS011;9716;53.114;18.040;2024-01-10T04:35:05;42.10;;;13.90;;
19167;SDS011;9716;53.114;18.040;2024-01-10T04:37:33;32.80;;;12.50;;
19167;SDS011;9716;53.114;18.040;2024-01-10T04:40:02;36.70;;;14.73;;
19167;SDS011;9716;53.114;18.040;2024-01-10T04:42:34;38.20;;;14.23;;
19167;SDS011;9716;53.114;18.040;2024-01-10T04:45:05;30.93;;;13.73;;
19167;SDS011;9716;53.114;18.040;2024-01-10T04:47:34;43.53;;;15.63;;
19167;SDS011;9716;53.114;18.040;2024-01-10T04:50:03;44.80;;;15.97;;
19167;SDS011;9716;53.114;18.040;2024-01-10T04:52:37;39.87;;;13.93;;
19167;SDS011;9716;53.114;18.040;2024-01-10T04:55:06;39.03;;;13.90;;
19167;SDS011;9716;53.114;18.040;2024-01-10T04:57:35;38.33;;;14.10;;
19167;SDS011;9716;53.114;18.040;2024-01-10T05:00:06;39.73;;;15.40;;
19167;SDS011;9716;53.114;18.040;2024-01-10T05:02:35;36.43;;;14.43;;
19167;SDS011;9716;53.114;18.040;2024-01-10T05:05:04;38.73;;;15.60;;
19167;SDS011;9716;53.114;18.040;2024-01-10T05:07:33;42.60;;;15.13;;
19167;SDS011;9716;53.114;18.040;2024-01-10T05:10:02;43.27;;;14.20;;
19167;SDS011;9716;53.114;18.040;2024-01-10T05:12:31;31.20;;;12.10;;
19167;SDS011;9716;53.114;18.040;2024-01-10T05:14:59;39.67;;;16.10;;
19167;SDS011;9716;53.114;18.040;2024-01-10T05:17:29;38.63;;;14.23;;
19167;SDS011;9716;53.114;18.040;2024-01-10T05:19:58;44.33;;;15.60;;
19167;SDS011;9716;53.114;18.040;2024-01-10T05:22:26;30.77;;;12.57;;
19167;SDS011;9716;53.114;18.040;2024-01-10T05:24:55;41.13;;;13.70;;
19167;SDS011;9716;53.114;18.040;2024-01-10T05:27:23;53.60;;;15.23;;
19167;SDS011;9716;53.114;18.040;2024-01-10T05:29:52;35.57;;;13.87;;
19167;SDS011;9716;53.114;18.040;2024-01-10T05:32:20;35.87;;;14.47;;
19167;SDS011;9716;53.114;18.040;2024-01-10T05:34:50;40.47;;;13.70;;
19167;SDS011;9716;53.114;18.040;2024-01-10T05:37:19;39.90;;;14.73;;
19167;SDS011;9716;53.114;18.040;2024-01-10T05:39:49;36.90;;;14.10;;
19167;SDS011;9716;53.114;18.040;2024-01-10T05:42:17;27.63;;;13.13;;
19167;SDS011;9716;53.114;18.040;2024-01-10T05:44:47;44.37;;;16.90;;
19167;SDS011;9716;53.114;18.040;2024-01-10T05:47:15;31.77;;;13.17;;
19167;SDS011;9716;53.114;18.040;2024-01-10T05:49:44;35.40;;;13.00;;
19167;SDS011;9716;53.114;18.040;2024-01-10T05:52:13;38.27;;;13.83;;
19167;SDS011;9716;53.114;18.040;2024-01-10T05:54:42;35.03;;;12.67;;
19167;SDS011;9716;53.114;18.040;2024-01-10T05:57:10;32.33;;;13.63;;
19167;SDS011;9716;53.114;18.040;2024-01-10T05:59:39;40.37;;;14.83;;
19167;SDS011;9716;53.114;18.040;2024-01-10T06:02:07;42.80;;;14.60;;
19167;SDS011;9716;53.114;18.040;2024-01-10T06:04:36;35.90;;;14.20;;
19167;SDS011;9716;53.114;18.040;2024-01-10T06:07:04;40.30;;;13.33;;
19167;SDS011;9716;53.114;18.040;2024-01-10T06:09:34;32.23;;;14.20;;
19167;SDS011;9716;53.114;18.040;2024-01-10T06:12:03;31.07;;;12.13;;
19167;SDS011;9716;53.114;18.040;2024-01-10T06:14:32;33.30;;;13.40;;
19167;SDS011;9716;53.114;18.040;2024-01-10T06:17:00;29.90;;;12.53;;
19167;SDS011;9716;53.114;18.040;2024-01-10T06:19:30;31.47;;;13.77;;
19167;SDS011;9716;53.114;18.040;2024-01-10T06:21:59;34.50;;;11.57;;
19167;SDS011;9716;53.114;18.040;2024-01-10T06:24:27;33.07;;;12.43;;
19167;SDS011;9716;53.114;18.040;2024-01-10T06:26:57;32.73;;;12.20;;
19167;SDS011;9716;53.114;18.040;2024-01-10T06:29:26;35.70;;;13.40;;
19167;SDS011;9716;53.114;18.040;2024-01-10T06:31:54;33.60;;;12.97;;
19167;SDS011;9716;53.114;18.040;2024-01-10T06:34:24;29.47;;;12.57;;
19167;SDS011;9716;53.114;18.040;2024-01-10T06:36:53;37.03;;;13.30;;
19167;SDS011;9716;53.114;18.040;2024-01-10T06:39:21;31.83;;;12.17;;
19167;SDS011;9716;53.114;18.040;2024-01-10T06:41:50;35.60;;;12.17;;
19167;SDS011;9716;53.114;18.040;2024-01-10T06:44:20;26.47;;;11.27;;
19167;SDS011;9716;53.114;18.040;2024-01-10T06:46:48;34.93;;;12.10;;
19167;SDS011;9716;53.114;18.040;2024-01-10T06:49:17;34.07;;;11.93;;
19167;SDS011;9716;53.114;18.040;2024-01-10T06:51:46;29.40;;;11.10;;
19167;SDS011;9716;53.114;18.040;2024-01-10T06:54:14;26.73;;;11.37;;
19167;SDS011;9716;53.114;18.040;2024-01-10T06:56:45;36.40;;;12.00;;
19167;SDS011;9716;53.114;18.040;2024-01-10T06:59:14;25.47;;;11.40;;
19167;SDS011;9716;53.114;18.040;2024-01-10T07:01:44;36.70;;;13.30;;
19167;SDS011;9716;53.114;18.040;2024-01-10T07:04:12;32.57;;;12.10;;
19167;SDS011;9716;53.114;18.040;2024-01-10T07:06:50;23.83;;;10.53;;
19167;SDS011;9716;53.114;18.040;2024-01-10T07:09:18;29.00;;;10.37;;
19167;SDS011;9716;53.114;18.040;2024-01-10T07:11:47;28.77;;;11.13;;
19167;SDS011;9716;53.114;18.040;2024-01-10T07:14:16;33.53;;;11.60;;
19167;SDS011;9716;53.114;18.040;2024-01-10T07:16:45;28.70;;;10.03;;
19167;SDS011;9716;53.114;18.040;2024-01-10T07:19:15;27.13;;;10.27;;
19167;SDS011;9716;53.114;18.040;2024-01-10T07:21:43;31.63;;;12.47;;
19167;SDS011;9716;53.114;18.040;2024-01-10T07:24:12;29.03;;;10.97;;
19167;SDS011;9716;53.114;18.040;2024-01-10T07:26:40;30.93;;;11.47;;
19167;SDS011;9716;53.114;18.040;2024-01-10T07:29:09;27.60;;;10.63;;
19167;SDS011;9716;53.114;18.040;2024-01-10T07:31:37;29.13;;;11.53;;
19167;SDS011;9716;53.114;18.040;2024-01-10T07:34:09;29.80;;;10.87;;
19167;SDS011;9716;53.114;18.040;2024-01-10T07:36:41;26.30;;;9.77;;
19167;SDS011;9716;53.114;18.040;2024-01-10T07:39:10;29.33;;;10.27;;
19167;SDS011;9716;53.114;18.040;2024-01-10T07:41:42;33.63;;;11.93;;
19167;SDS011;9716;53.114;18.040;2024-01-10T07:44:11;26.13;;;12.37;;
19167;SDS011;9716;53.114;18.040;2024-01-10T07:46:39;26.87;;;11.37;;
19167;SDS011;9716;53.114;18.040;2024-01-10T07:49:10;30.23;;;10.80;;
19167;SDS011;9716;53.114;18.040;2024-01-10T07:51:38;33.57;;;12.07;;
19167;SDS011;9716;53.114;18.040;2024-01-10T07:54:07;31.80;;;11.33;;
19167;SDS011;9716;53.114;18.040;2024-01-10T07:56:36;26.20;;;10.27;;
19167;SDS011;9716;53.114;18.040;2024-01-10T07:59:04;25.87;;;10.27;;
19167;SDS011;9716;53.114;18.040;2024-01-10T08:01:33;24.33;;;9.97;;
19167;SDS011;9716;53.114;18.040;2024-01-10T08:04:01;30.90;;;10.73;;
19167;SDS011;9716;53.114;18.040;2024-01-10T08:06:31;34.03;;;11.60;;
19167;SDS011;9716;53.114;18.040;2024-01-10T08:09:00;29.50;;;13.87;;
19167;SDS011;9716;53.114;18.040;2024-01-10T08:11:31;31.37;;;11.07;;
19167;SDS011;9716;53.114;18.040;2024-01-10T08:14:01;35.33;;;14.30;;
19167;SDS011;9716;53.114;18.040;2024-01-10T08:16:29;38.30;;;12.20;;
19167;SDS011;9716;53.114;18.040;2024-01-10T08:18:59;28.47;;;10.50;;
19167;SDS011;9716;53.114;18.040;2024-01-10T08:21:27;31.57;;;12.53;;
19167;SDS011;9716;53.114;18.040;2024-01-10T08:23:58;28.00;;;11.63;;
19167;SDS011;9716;53.114;18.040;2024-01-10T08:26:27;27.17;;;10.97;;
19167;SDS011;9716;53.114;18.040;2024-01-10T08:28:56;29.33;;;12.03;;
19167;SDS011;9716;53.114;18.040;2024-01-10T08:31:24;38.30;;;11.87;;
19167;SDS011;9716;53.114;18.040;2024-01-10T08:33:54;27.37;;;12.07;;
19167;SDS011;9716;53.114;18.040;2024-01-10T08:36:23;29.13;;;10.57;;
19167;SDS011;9716;53.114;18.040;2024-01-10T08:38:52;31.03;;;11.20;;
19167;SDS011;9716;53.114;18.040;2024-01-10T08:41:21;26.10;;;11.23;;
19167;SDS011;9716;53.114;18.040;2024-01-10T08:43:50;27.60;;;11.10;;
19167;SDS011;9716;53.114;18.040;2024-01-10T08:46:19;32.03;;;12.07;;
19167;SDS011;9716;53.114;18.040;2024-01-10T08:48:48;26.13;;;11.47;;
19167;SDS011;9716;53.114;18.040;2024-01-10T08:51:17;29.43;;;11.77;;
19167;SDS011;9716;53.114;18.040;2024-01-10T08:53:46;32.37;;;12.17;;
19167;SDS011;9716;53.114;18.040;2024-01-10T08:56:15;26.40;;;10.30;;
19167;SDS011;9716;53.114;18.040;2024-01-10T08:58:45;28.67;;;10.87;;
19167;SDS011;9716;53.114;18.040;2024-01-10T09:01:13;29.93;;;13.00;;
19167;SDS011;9716;53.114;18.040;2024-01-10T09:03:42;29.10;;;11.73;;
19167;SDS011;9716;53.114;18.040;2024-01-10T09:06:10;25.90;;;10.50;;
19167;SDS011;9716;53.114;18.040;2024-01-10T09:08:39;33.33;;;11.87;;
19167;SDS011;9716;53.114;18.040;2024-01-10T09:11:08;24.33;;;10.57;;
19167;SDS011;9716;53.114;18.040;2024-01-10T09:13:37;24.27;;;9.60;;
19167;SDS011;9716;53.114;18.040;2024-01-10T09:16:08;27.07;;;11.53;;
19167;SDS011;9716;53.114;18.040;2024-01-10T09:18:38;26.80;;;10.07;;
19167;SDS011;9716;53.114;18.040;2024-01-10T09:21:06;26.70;;;10.07;;
19167;SDS011;9716;53.114;18.040;2024-01-10T09:23:35;25.60;;;9.67;;
19167;SDS011;9716;53.114;18.040;2024-01-10T09:26:04;24.77;;;9.33;;
19167;SDS011;9716;53.114;18.040;2024-01-10T09:28:33;25.70;;;9.67;;
19167;SDS011;9716;53.114;18.040;2024-01-10T09:31:01;19.20;;;9.50;;
19167;SDS011;9716;53.114;18.040;2024-01-10T09:33:31;25.80;;;10.30;;
19167;SDS011;9716;53.114;18.040;2024-01-10T09:36:00;20.73;;;10.50;;
19167;SDS011;9716;53.114;18.040;2024-01-10T09:38:34;23.40;;;9.10;;
19167;SDS011;9716;53.114;18.040;2024-01-10T09:41:03;20.67;;;9.77;;
19167;SDS011;9716;53.114;18.040;2024-01-10T09:43:32;22.57;;;7.63;;
19167;SDS011;9716;53.114;18.040;2024-01-10T09:46:01;20.80;;;8.43;;
19167;SDS011;9716;53.114;18.040;2024-01-10T09:48:31;18.67;;;8.90;;
19167;SDS011;9716;53.114;18.040;2024-01-10T09:51:00;20.30;;;8.50;;
19167;SDS011;9716;53.114;18.040;2024-01-10T09:53:29;22.50;;;9.17;;
19167;SDS011;9716;53.114;18.040;2024-01-10T09:56:03;25.17;;;9.00;;
19167;SDS011;9716;53.114;18.040;2024-01-10T09:58:32;21.23;;;8.63;;
19167;SDS011;9716;53.114;18.040;2024-01-10T10:01:06;19.07;;;7.83;;
19167;SDS011;9716;53.114;18.040;2024-01-10T10:03:37;20.20;;;7.40;;
19167;SDS011;9716;53.114;18.040;2024-01-10T10:06:09;19.97;;;7.63;;
19167;SDS011;9716;53.114;18.040;2024-01-10T10:08:41;18.27;;;7.27;;
19167;SDS011;9716;53.114;18.040;2024-01-10T10:11:11;16.03;;;7.37;;
19167;SDS011;9716;53.114;18.040;2024-01-10T10:13:41;17.53;;;7.90;;
19167;SDS011;9716;53.114;18.040;2024-01-10T10:16:10;17.67;;;7.77;;
19167;SDS011;9716;53.114;18.040;2024-01-10T10:18:41;14.97;;;6.23;;
19167;SDS011;9716;53.114;18.040;2024-01-10T10:21:16;19.53;;;8.03;;
19167;SDS011;9716;53.114;18.040;2024-01-10T10:23:57;20.87;;;7.77;;
19167;SDS011;9716;53.114;18.040;2024-01-10T10:26:26;20.33;;;8.47;;
19167;SDS011;9716;53.114;18.040;2024-01-10T10:28:56;17.00;;;7.00;;
19167;SDS011;9716;53.114;18.040;2024-01-10T10:31:25;18.03;;;7.70;;
19167;SDS011;9716;53.114;18.040;2024-01-10T10:33:57;16.87;;;7.97;;
19167;SDS011;9716;53.114;18.040;2024-01-10T10:36:29;19.50;;;8.07;;
19167;SDS011;9716;53.114;18.040;2024-01-10T10:38:59;19.30;;;8.67;;
19167;SDS011;9716;53.114;18.040;2024-01-10T10:41:29;16.73;;;7.83;;
19167;SDS011;9716;53.114;18.040;2024-01-10T10:44:00;17.07;;;7.57;;
19167;SDS011;9716;53.114;18.040;2024-01-10T10:46:31;21.30;;;8.27;;
19167;SDS011;9716;53.114;18.040;2024-01-10T10:49:05;18.87;;;8.10;;
19167;SDS011;9716;53.114;18.040;2024-01-10T10:51:39;19.50;;;8.07;;
19167;SDS011;9716;53.114;18.040;2024-01-10T10:54:08;15.13;;;6.77;;
19167;SDS011;9716;53.114;18.040;2024-01-10T10:56:37;18.43;;;7.60;;
19167;SDS011;9716;53.114;18.040;2024-01-10T10:59:08;21.33;;;7.23;;
19167;SDS011;9716;53.114;18.040;2024-01-10T11:01:39;20.73;;;8.83;;
19167;SDS011;9716;53.114;18.040;2024-01-10T11:04:10;21.83;;;8.13;;
19167;SDS011;9716;53.114;18.040;2024-01-10T11:06:40;17.70;;;8.33;;
19167;SDS011;9716;53.114;18.040;2024-01-10T11:09:09;17.47;;;8.13;;
19167;SDS011;9716;53.114;18.040;2024-01-10T11:11:58;18.20;;;7.13;;
19167;SDS011;9716;53.114;18.040;2024-01-10T11:14:39;16.40;;;7.37;;
19167;SDS011;9716;53.114;18.040;2024-01-10T11:20:26;25.30;;;8.97;;
19167;SDS011;9716;53.114;18.040;2024-01-10T11:26:01;19.87;;;8.03;;
19167;SDS011;9716;53.114;18.040;2024-01-10T11:28:30;18.27;;;8.03;;
19167;SDS011;9716;53.114;18.040;2024-01-10T11:31:00;21.63;;;8.83;;
19167;SDS011;9716;53.114;18.040;2024-01-10T11:33:30;22.47;;;9.07;;
19167;SDS011;9716;53.114;18.040;2024-01-10T11:36:14;21.13;;;9.60;;
19167;SDS011;9716;53.114;18.040;2024-01-10T11:38:47;26.57;;;9.13;;
19167;SDS011;9716;53.114;18.040;2024-01-10T11:41:20;24.20;;;9.97;;
19167;SDS011;9716;53.114;18.040;2024-01-10T11:46:58;18.40;;;7.37;;
19167;SDS011;9716;53.114;18.040;2024-01-10T11:49:27;23.63;;;8.73;;
19167;SDS011;9716;53.114;18.040;2024-01-10T11:51:58;23.87;;;8.13;;
19167;SDS011;9716;53.114;18.040;2024-01-10T11:54:41;26.10;;;8.57;;
19167;SDS011;9716;53.114;18.040;2024-01-10T11:57:11;22.93;;;9.13;;
19167;SDS011;9716;53.114;18.040;2024-01-10T11:59:41;18.60;;;7.53;;
19167;SDS011;9716;53.114;18.040;2024-01-10T12:02:13;21.07;;;7.83;;
19167;SDS011;9716;53.114;18.040;2024-01-10T12:04:43;23.37;;;8.10;;
19167;SDS011;9716;53.114;18.040;2024-01-10T12:07:16;18.70;;;7.30;;
19167;SDS011;9716;53.114;18.040;2024-01-10T12:09:47;22.67;;;7.77;;
19167;SDS011;9716;53.114;18.040;2024-01-10T12:12:16;19.30;;;7.37;;
19167;SDS011;9716;53.114;18.040;2024-01-10T12:14:45;17.80;;;7.43;;
19167;SDS011;9716;53.114;18.040;2024-01-10T12:17:14;17.60;;;7.97;;
19167;SDS011;9716;53.114;18.040;2024-01-10T12:19:43;15.97;;;6.17;;
19167;SDS011;9716;53.114;18.040;2024-01-10T12:22:17;24.80;;;6.90;;
19167;SDS011;9716;53.114;18.040;2024-01-10T12:24:47;18.13;;;6.43;;
19167;SDS011;9716;53.114;18.040;2024-01-10T12:27:18;22.90;;;7.63;;
19167;SDS011;9716;53.114;18.040;2024-01-10T12:29:50;15.97;;;6.53;;
19167;SDS011;9716;53.114;18.040;2024-01-10T12:32:20;15.03;;;6.20;;
19167;SDS011;9716;53.114;18.040;2024-01-10T12:34:59;18.83;;;7.20;;
19167;SDS011;9716;53.114;18.040;2024-01-10T12:37:31;16.03;;;6.13;;
19167;SDS011;9716;53.114;18.040;2024-01-10T12:39:59;15.60;;;6.20;;
19167;SDS011;9716;53.114;18.040;2024-01-10T12:42:36;14.57;;;6.77;;
19167;SDS011;9716;53.114;18.040;2024-01-10T12:45:05;18.50;;;6.77;;
19167;SDS011;9716;53.114;18.040;2024-01-10T12:47:47;19.07;;;6.03;;
19167;SDS011;9716;53.114;18.040;2024-01-10T12:50:16;17.70;;;6.93;;
19167;SDS011;9716;53.114;18.040;2024-01-10T12:52:46;18.63;;;7.23;;
19167;SDS011;9716;53.114;18.040;2024-01-10T12:55:16;17.37;;;6.40;;
19167;SDS011;9716;53.114;18.040;2024-01-10T12:57:45;23.57;;;9.17;;
19167;SDS011;9716;53.114;18.040;2024-01-10T13:00:14;14.03;;;6.20;;
19167;SDS011;9716;53.114;18.040;2024-01-10T13:02:43;16.37;;;6.97;;
19167;SDS011;9716;53.114;18.040;2024-01-10T13:05:13;20.07;;;6.87;;
19167;SDS011;9716;53.114;18.040;2024-01-10T13:07:42;14.00;;;6.03;;
19167;SDS011;9716;53.114;18.040;2024-01-10T13:10:13;16.17;;;6.27;;
19167;SDS011;9716;53.114;18.040;2024-01-10T13:12:43;16.13;;;6.20;;
19167;SDS011;9716;53.114;18.040;2024-01-10T13:15:11;21.33;;;9.00;;
19167;SDS011;9716;53.114;18.040;2024-01-10T13:17:40;20.80;;;6.20;;
19167;SDS011;9716;53.114;18.040;2024-01-10T13:20:09;16.17;;;7.17;;
19167;SDS011;9716;53.114;18.040;2024-01-10T13:22:38;18.83;;;6.80;;
19167;SDS011;9716;53.114;18.040;2024-01-10T13:25:07;16.37;;;6.93;;
19167;SDS011;9716;53.114;18.040;2024-01-10T13:27:37;16.33;;;8.43;;
19167;SDS011;9716;53.114;18.040;2024-01-10T13:30:06;19.83;;;7.33;;
19167;SDS011;9716;53.114;18.040;2024-01-10T13:32:38;16.87;;;8.07;;
19167;SDS011;9716;53.114;18.040;2024-01-10T13:35:07;17.07;;;6.83;;
19167;SDS011;9716;53.114;18.040;2024-01-10T13:37:36;20.90;;;8.00;;
19167;SDS011;9716;53.114;18.040;2024-01-10T13:40:06;17.27;;;7.97;;
19167;SDS011;9716;53.114;18.040;2024-01-10T13:42:38;17.50;;;6.17;;
19167;SDS011;9716;53.114;18.040;2024-01-10T13:45:06;13.40;;;6.80;;
19167;SDS011;9716;53.114;18.040;2024-01-10T13:47:38;15.67;;;6.33;;
19167;SDS011;9716;53.114;18.040;2024-01-10T13:50:07;19.40;;;6.73;;
19167;SDS011;9716;53.114;18.040;2024-01-10T13:52:37;19.73;;;7.30;;
19167;SDS011;9716;53.114;18.040;2024-01-10T13:55:05;22.43;;;7.13;;
19167;SDS011;9716;53.114;18.040;2024-01-10T13:57:38;23.10;;;8.87;;
19167;SDS011;9716;53.114;18.040;2024-01-10T14:00:06;27.13;;;9.03;;
19167;SDS011;9716;53.114;18.040;2024-01-10T14:02:35;17.93;;;7.90;;
19167;SDS011;9716;53.114;18.040;2024-01-10T14:05:04;22.53;;;8.40;;
19167;SDS011;9716;53.114;18.040;2024-01-10T14:07:33;23.60;;;9.80;;
19167;SDS011;9716;53.114;18.040;2024-01-10T14:10:02;21.90;;;8.80;;
19167;SDS011;9716;53.114;18.040;2024-01-10T14:12:33;21.07;;;8.73;;
19167;SDS011;9716;53.114;18.040;2024-01-10T14:15:02;23.13;;;9.10;;
19167;SDS011;9716;53.114;18.040;2024-01-10T14:17:32;23.27;;;10.50;;
19167;SDS011;9716;53.114;18.040;2024-01-10T14:20:00;25.20;;;11.17;;
19167;SDS011;9716;53.114;18.040;2024-01-10T14:22:30;25.93;;;9.57;;
19167;SDS011;9716;53.114;18.040;2024-01-10T14:24:59;19.30;;;7.93;;
19167;SDS011;9716;53.114;18.040;2024-01-10T14:27:29;22.23;;;10.07;;
19167;SDS011;9716;53.114;18.040;2024-01-10T14:29:57;22.37;;;9.67;;
19167;SDS011;9716;53.114;18.040;2024-01-10T14:32:31;22.70;;;8.83;;
19167;SDS011;9716;53.114;18.040;2024-01-10T14:35:01;24.60;;;9.23;;
19167;SDS011;9716;53.114;18.040;2024-01-10T14:37:32;24.33;;;10.60;;
19167;SDS011;9716;53.114;18.040;2024-01-10T14:42:33;21.83;;;8.77;;
19167;SDS011;9716;53.114;18.040;2024-01-10T14:45:02;25.90;;;10.67;;
19167;SDS011;9716;53.114;18.040;2024-01-10T14:47:32;29.07;;;10.53;;
19167;SDS011;9716;53.114;18.040;2024-01-10T14:50:02;24.30;;;9.13;;
19167;SDS011;9716;53.114;18.040;2024-01-10T14:52:32;19.67;;;8.50;;
19167;SDS011;9716;53.114;18.040;2024-01-10T14:55:01;27.20;;;10.00;;